createdAt,value
2018-02-15T00:00:40.997Z,53.01
2018-02-15T00:03:09.686Z,52.80
2018-02-15T00:05:37.984Z,52.70
2018-02-15T00:08:09.554Z,52.67
2018-02-15T00:10:37.893Z,52.76
2018-02-15T00:13:09.547Z,52.27
2018-02-15T00:15:38.112Z,52.14
2018-02-15T00:18:10.157Z,52.22
2018-02-15T00:20:38.443Z,52.23
2018-02-15T00:23:09.904Z,52.02
2018-02-15T00:25:38.261Z,51.68
2018-02-15T00:28:10.305Z,51.65
2018-02-15T00:30:38.595Z,51.74
2018-02-15T00:33:10.057Z,52.08
2018-02-15T00:35:38.344Z,51.97
2018-02-15T00:38:09.574Z,51.84
2018-02-15T00:40:37.865Z,51.66
2018-02-15T00:43:09.495Z,51.27
2018-02-15T00:45:37.785Z,51.34
2018-02-15T00:48:09.408Z,51.28
2018-02-15T00:50:37.710Z,51.47
2018-02-15T00:53:09.380Z,51.49
2018-02-15T00:55:37.694Z,51.37
2018-02-15T00:58:09.190Z,51.19
2018-02-15T01:00:37.476Z,51.19
2018-02-15T01:03:08.886Z,51.46
2018-02-15T01:05:37.195Z,51.33
2018-02-15T01:08:08.544Z,51.08
2018-02-15T01:10:36.833Z,51.17
2018-02-15T01:13:08.372Z,51.16
2018-02-15T01:15:36.685Z,51.38
2018-02-15T01:18:10.149Z,51.32
2018-02-15T01:20:38.428Z,51.46
2018-02-15T01:23:11.494Z,51.63
2018-02-15T01:25:39.787Z,51.49
2018-02-15T01:28:08.698Z,51.53
2018-02-15T01:30:37.234Z,51.75
2018-02-15T01:33:09.301Z,52.18
2018-02-15T01:35:37.588Z,51.70
2018-02-15T01:38:08.456Z,52.26
2018-02-15T01:40:36.936Z,52.07
2018-02-15T01:43:11.080Z,52.16
2018-02-15T01:45:40.244Z,51.93
2018-02-15T01:48:08.552Z,52.42
2018-02-15T01:50:36.984Z,52.48
2018-02-15T01:53:08.676Z,52.31
2018-02-15T01:55:36.949Z,52.27
2018-02-15T01:58:08.372Z,52.44
2018-02-15T02:00:36.948Z,52.89
2018-02-15T02:03:08.203Z,52.71
2018-02-15T02:05:36.501Z,52.95
2018-02-15T02:08:07.777Z,52.88
2018-02-15T02:10:36.197Z,52.86
2018-02-15T02:13:11.459Z,52.74
2018-02-15T02:15:40.119Z,52.90
2018-02-15T02:18:09.371Z,52.89
2018-02-15T02:20:38.059Z,52.86
2018-02-15T02:23:09.555Z,53.19
2018-02-15T02:25:37.853Z,53.38
2018-02-15T02:28:09.197Z,53.24
2018-02-15T02:30:37.539Z,53.10
2018-02-15T02:33:08.430Z,52.78
2018-02-15T02:35:36.750Z,52.55
2018-02-15T02:38:08.315Z,52.62
2018-02-15T02:40:36.619Z,53.15
2018-02-15T02:43:08.336Z,53.11
2018-02-15T02:45:36.666Z,53.19
2018-02-15T02:48:08.086Z,53.21
2018-02-15T02:50:36.388Z,52.76
2018-02-15T02:53:11.399Z,52.68
2018-02-15T02:55:40.545Z,52.27
2018-02-15T02:58:08.920Z,52.32
2018-02-15T03:00:37.272Z,52.86
2018-02-15T03:03:09.189Z,52.65
2018-02-15T03:05:37.497Z,52.09
2018-02-15T03:08:09.953Z,52.18
2018-02-15T03:10:38.250Z,52.25
2018-02-15T03:13:10.165Z,52.42
2018-02-15T03:15:38.595Z,52.56
2018-02-15T03:18:08.713Z,52.62
2018-02-15T03:20:37.013Z,52.59
2018-02-15T03:23:09.130Z,52.71
2018-02-15T03:25:37.643Z,53.00
2018-02-15T03:28:09.582Z,53.08
2018-02-15T03:30:37.857Z,53.43
2018-02-15T03:33:09.134Z,54.29
2018-02-15T03:35:37.419Z,55.12
2018-02-15T03:38:08.737Z,55.71
2018-02-15T03:40:37.671Z,55.77
2018-02-15T03:43:10.031Z,55.79
2018-02-15T03:45:38.571Z,56.51
2018-02-15T03:48:08.552Z,56.43
2018-02-15T03:50:36.830Z,56.75
2018-02-15T03:53:11.984Z,57.16
2018-02-15T03:55:40.274Z,57.51
2018-02-15T03:58:08.568Z,58.32
2018-02-15T04:00:36.904Z,58.67
2018-02-15T04:03:10.959Z,58.95
2018-02-15T04:05:39.269Z,59.48
2018-02-15T04:08:08.896Z,61.18
2018-02-15T04:10:37.276Z,62.57
2018-02-15T04:13:08.581Z,64.04
2018-02-15T04:15:37.473Z,65.31
2018-02-15T04:18:08.476Z,67.05
2018-02-15T04:20:36.808Z,69.60
2018-02-15T04:23:09.826Z,70.77
2018-02-15T04:25:38.131Z,72.54
2018-02-15T04:28:09.884Z,73.72
2018-02-15T04:30:38.311Z,74.44
2018-02-15T04:33:08.517Z,75.42
2018-02-15T04:35:36.821Z,77.32
2018-02-15T04:38:11.713Z,77.89
2018-02-15T04:40:40.279Z,79.14
2018-02-15T04:43:08.569Z,80.19
2018-02-15T04:45:36.876Z,80.28
2018-02-15T04:48:09.617Z,80.94
2018-02-15T04:50:37.929Z,82.89
2018-02-15T04:53:09.243Z,82.71
2018-02-15T04:55:37.532Z,82.80
2018-02-15T04:58:08.765Z,83.04
2018-02-15T05:00:37.349Z,83.62
2018-02-15T05:03:09.377Z,84.18
2018-02-15T05:05:37.665Z,84.29
2018-02-15T05:08:08.485Z,84.62
2018-02-15T05:10:36.781Z,84.65
2018-02-15T05:13:08.335Z,85.06
2018-02-15T05:15:36.624Z,85.54
2018-02-15T05:18:08.188Z,86.30
2018-02-15T05:20:36.728Z,86.88
2018-02-15T05:23:11.999Z,86.24
2018-02-15T05:25:40.294Z,86.34
2018-02-15T05:28:08.741Z,86.33
2018-02-15T05:30:37.148Z,86.78
2018-02-15T05:33:09.199Z,86.57
2018-02-15T05:35:37.475Z,86.54
2018-02-15T05:38:09.651Z,86.68
2018-02-15T05:40:38.417Z,86.58
2018-02-15T05:43:10.229Z,86.79
2018-02-15T05:45:38.522Z,86.93
2018-02-15T05:48:08.473Z,86.61
2018-02-15T05:50:36.752Z,87.04
2018-02-15T05:53:11.930Z,87.36
2018-02-15T05:55:44.504Z,87.78
2018-02-15T05:58:12.785Z,87.49
2018-02-15T06:00:41.324Z,87.24
2018-02-15T06:03:09.605Z,87.18
2018-02-15T06:05:37.934Z,87.28
2018-02-15T06:08:09.637Z,87.03
2018-02-15T06:10:37.940Z,87.37
2018-02-15T06:13:09.864Z,87.24
2018-02-15T06:15:38.180Z,87.35
2018-02-15T06:18:09.370Z,87.52
2018-02-15T06:20:37.665Z,87.60
2018-02-15T06:23:09.214Z,87.14
2018-02-15T06:25:37.497Z,87.16
2018-02-15T06:28:09.285Z,86.51
2018-02-15T06:30:37.550Z,86.71
2018-02-15T06:33:09.410Z,86.89
2018-02-15T06:35:37.716Z,86.58
2018-02-15T06:38:09.619Z,86.35
2018-02-15T06:40:37.929Z,86.38
2018-02-15T06:43:09.782Z,86.30
2018-02-15T06:45:38.053Z,86.51
2018-02-15T06:48:10.102Z,85.74
2018-02-15T06:50:38.386Z,85.97
2018-02-15T06:53:09.738Z,85.87
2018-02-15T06:55:38.024Z,84.99
2018-02-15T06:58:10.062Z,85.17
2018-02-15T07:00:38.341Z,84.48
2018-02-15T07:03:08.460Z,84.49
2018-02-15T07:05:36.740Z,84.40
2018-02-15T07:08:09.638Z,84.37
2018-02-15T07:10:37.943Z,83.86
2018-02-15T07:13:09.368Z,83.12
2018-02-15T07:15:37.648Z,83.06
2018-02-15T07:18:08.483Z,83.26
2018-02-15T07:20:36.760Z,82.96
2018-02-15T07:23:08.213Z,82.97
2018-02-15T07:25:36.784Z,82.75
2018-02-15T07:28:11.985Z,82.17
2018-02-15T07:30:40.452Z,82.00
2018-02-15T07:33:08.754Z,82.09
2018-02-15T07:35:37.040Z,82.35
2018-02-15T07:38:08.852Z,82.65
2018-02-15T07:40:37.139Z,82.12
2018-02-15T07:43:09.240Z,81.65
2018-02-15T07:45:37.540Z,81.88
2018-02-15T07:48:08.767Z,82.08
2018-02-15T07:50:37.091Z,81.46
2018-02-15T07:53:08.608Z,80.48
2018-02-15T07:55:36.918Z,80.71
2018-02-15T07:58:11.942Z,80.29
2018-02-15T08:00:40.252Z,80.73
2018-02-15T08:03:08.556Z,80.52
2018-02-15T08:05:36.852Z,80.59
2018-02-15T08:08:12.058Z,80.05
2018-02-15T08:10:40.338Z,80.49
2018-02-15T08:13:08.632Z,79.62
2018-02-15T08:15:36.920Z,79.33
2018-02-15T08:18:08.769Z,78.53
2018-02-15T08:20:37.124Z,78.93
2018-02-15T08:23:09.185Z,78.27
2018-02-15T08:25:37.490Z,78.28
2018-02-15T08:28:08.476Z,78.17
2018-02-15T08:30:36.756Z,77.89
2018-02-15T08:33:08.439Z,77.92
2018-02-15T08:35:36.736Z,77.87
2018-02-15T08:38:08.507Z,77.89
2018-02-15T08:40:37.032Z,78.22
2018-02-15T08:43:08.967Z,79.38
2018-02-15T08:45:37.210Z,78.96
2018-02-15T08:48:08.515Z,79.06
2018-02-15T08:50:36.811Z,79.48
2018-02-15T08:53:10.165Z,78.91
2018-02-15T08:55:38.439Z,79.00
2018-02-15T08:58:08.459Z,78.33
2018-02-15T09:00:41.057Z,77.65
2018-02-15T09:03:09.468Z,77.60
2018-02-15T09:05:37.753Z,77.82
2018-02-15T09:08:09.014Z,79.25
2018-02-15T09:10:37.331Z,78.88
2018-02-15T09:13:08.604Z,77.90
2018-02-15T09:15:37.175Z,77.99
2018-02-15T09:18:08.544Z,77.91
2018-02-15T09:20:36.852Z,77.62
2018-02-15T09:23:11.887Z,78.02
2018-02-15T09:25:40.172Z,78.50
2018-02-15T09:28:08.508Z,79.15
2018-02-15T09:30:36.889Z,79.14
2018-02-15T09:33:11.981Z,79.23
2018-02-15T09:35:40.298Z,78.68
2018-02-15T09:38:08.801Z,78.60
2018-02-15T09:40:37.124Z,79.14
2018-02-15T09:43:08.629Z,78.17
2018-02-15T09:45:36.907Z,78.77
2018-02-15T09:48:12.080Z,79.66
2018-02-15T09:50:40.705Z,78.68
2018-02-15T09:53:08.996Z,77.98
2018-02-15T09:55:37.316Z,78.58
2018-02-15T09:58:08.522Z,78.55
2018-02-15T10:00:36.792Z,78.29
2018-02-15T10:03:08.595Z,78.81
2018-02-15T10:05:37.310Z,80.75
2018-02-15T10:08:09.270Z,80.66
2018-02-15T10:10:37.550Z,81.19
2018-02-15T10:13:08.480Z,80.53
2018-02-15T10:15:36.942Z,80.69
2018-02-15T10:18:12.109Z,79.75
2018-02-15T10:20:40.414Z,79.96
2018-02-15T10:23:09.572Z,79.75
2018-02-15T10:25:38.179Z,80.15
2018-02-15T10:28:09.713Z,80.82
2018-02-15T10:30:37.999Z,80.99
2018-02-15T10:33:09.953Z,82.22
2018-02-15T10:35:38.241Z,81.71
2018-02-15T10:38:10.429Z,82.31
2018-02-15T10:40:38.724Z,82.13
2018-02-15T10:43:08.922Z,81.84
2018-02-15T10:45:37.236Z,82.89
2018-02-15T10:48:08.781Z,83.12
2018-02-15T10:50:37.149Z,83.72
2018-02-15T10:53:08.512Z,82.65
2018-02-15T10:55:36.813Z,82.17
2018-02-15T10:58:08.312Z,83.09
2018-02-15T11:00:42.275Z,83.56
2018-02-15T11:03:16.232Z,82.51
2018-02-15T11:05:45.517Z,81.77
2018-02-15T11:08:13.844Z,83.10
2018-02-15T11:10:42.261Z,81.09
2018-02-15T11:13:10.536Z,81.49
2018-02-15T11:15:38.847Z,80.90
2018-02-15T11:18:08.948Z,80.71
2018-02-15T11:20:37.530Z,80.34
2018-02-15T11:23:09.180Z,82.17
2018-02-15T11:25:37.485Z,81.47
2018-02-15T11:28:08.683Z,80.22
2018-02-15T11:30:36.978Z,80.04
2018-02-15T11:33:08.301Z,79.73
2018-02-15T11:35:37.261Z,80.67
2018-02-15T11:38:09.163Z,79.59
2018-02-15T11:40:37.485Z,80.38
2018-02-15T11:43:09.817Z,79.72
2018-02-15T11:45:38.134Z,79.48
2018-02-15T11:48:10.043Z,79.72
2018-02-15T11:50:38.358Z,79.62
2018-02-15T11:53:10.199Z,80.47
2018-02-15T11:55:38.496Z,80.14
2018-02-15T11:58:08.613Z,79.73
2018-02-15T12:00:36.908Z,79.97
2018-02-15T12:03:11.957Z,80.14
2018-02-15T12:05:40.251Z,80.22
2018-02-15T12:08:08.845Z,80.35
2018-02-15T12:10:37.152Z,80.34
2018-02-15T12:13:08.554Z,80.67
2018-02-15T12:15:36.946Z,80.81
2018-02-15T12:18:08.778Z,80.87
2018-02-15T12:20:37.076Z,80.50
2018-02-15T12:23:09.086Z,80.37
2018-02-15T12:25:37.377Z,79.79
2018-02-15T12:28:09.528Z,79.88
2018-02-15T12:30:37.972Z,80.20
2018-02-15T12:33:10.204Z,80.04
2018-02-15T12:35:38.817Z,79.67
2018-02-15T12:38:08.560Z,80.54
2018-02-15T12:40:36.824Z,80.11
2018-02-15T12:43:08.389Z,79.56
2018-02-15T12:45:36.723Z,79.69
2018-02-15T12:48:08.197Z,79.98
2018-02-15T12:50:36.481Z,79.77
2018-02-15T12:53:08.163Z,78.88
2018-02-15T12:55:36.704Z,79.11
2018-02-15T12:58:11.743Z,79.16
2018-02-15T13:00:40.021Z,79.76
2018-02-15T13:03:08.637Z,81.35
2018-02-15T13:05:36.953Z,80.49
2018-02-15T13:08:08.372Z,79.95
2018-02-15T13:10:36.681Z,80.15
2018-02-15T13:13:16.764Z,80.85
2018-02-15T13:15:56.725Z,81.50
2018-02-15T13:18:25.033Z,81.12
2018-02-15T13:20:53.334Z,81.29
2018-02-15T13:23:21.660Z,81.68
2018-02-15T13:25:49.910Z,80.84
2018-02-15T13:28:29.886Z,80.45
2018-02-15T13:30:58.193Z,80.83
2018-02-15T13:33:26.470Z,80.52
2018-02-15T13:35:55.254Z,80.50
2018-02-15T13:38:23.564Z,80.53
2018-02-15T13:40:51.876Z,81.17
2018-02-15T13:43:20.356Z,81.56
2018-02-15T13:45:48.677Z,80.82
2018-02-15T13:48:16.953Z,81.03
2018-02-15T13:50:45.250Z,81.57
2018-02-15T13:53:13.526Z,82.62
2018-02-15T13:55:41.832Z,81.47
2018-02-15T13:58:10.648Z,81.84
2018-02-15T14:00:38.973Z,83.00
2018-02-15T14:03:09.296Z,82.89
2018-02-15T14:05:37.613Z,82.76
2018-02-15T14:08:08.816Z,82.26
2018-02-15T14:10:37.099Z,82.08
2018-02-15T14:13:11.113Z,82.51
2018-02-15T14:15:39.607Z,83.72
2018-02-15T14:18:08.641Z,83.90
2018-02-15T14:20:36.916Z,83.98
2018-02-15T14:23:08.600Z,84.13
2018-02-15T14:25:36.857Z,84.63
2018-02-15T14:28:11.975Z,84.76
2018-02-15T14:30:40.393Z,84.78
2018-02-15T14:33:08.830Z,85.17
2018-02-15T14:35:37.345Z,85.29
2018-02-15T14:38:09.208Z,86.39
2018-02-15T14:40:37.502Z,86.95
2018-02-15T14:43:09.078Z,86.16
2018-02-15T14:45:37.388Z,85.74
2018-02-15T14:48:08.849Z,85.75
2018-02-15T14:50:37.377Z,85.63
2018-02-15T14:53:09.501Z,85.03
2018-02-15T14:55:37.767Z,84.76
2018-02-15T14:58:08.501Z,85.40
2018-02-15T15:00:36.808Z,85.32
2018-02-15T15:03:08.297Z,84.69
2018-02-15T15:05:36.741Z,85.18
2018-02-15T15:08:09.466Z,84.82
2018-02-15T15:10:37.952Z,85.03
2018-02-15T15:13:10.583Z,85.15
2018-02-15T15:15:40.277Z,85.23
2018-02-15T15:18:08.534Z,85.32
2018-02-15T15:20:36.829Z,85.67
2018-02-15T15:23:10.147Z,85.58
2018-02-15T15:25:39.271Z,85.49
2018-02-15T15:28:08.584Z,85.61
2018-02-15T15:30:36.880Z,85.38
2018-02-15T15:33:08.371Z,85.45
2018-02-15T15:35:36.695Z,85.66
2018-02-15T15:38:08.092Z,85.61
2018-02-15T15:40:36.365Z,86.19
2018-02-15T15:43:08.011Z,87.23
2018-02-15T15:45:36.295Z,85.15
2018-02-15T15:48:11.125Z,85.11
2018-02-15T15:50:39.412Z,85.32
2018-02-15T15:53:08.937Z,84.69
2018-02-15T15:55:37.471Z,85.87
2018-02-15T15:58:09.378Z,84.89
2018-02-15T16:00:37.664Z,84.85
2018-02-15T16:03:08.781Z,85.40
2018-02-15T16:05:37.067Z,85.18
2018-02-15T16:08:09.276Z,85.27
2018-02-15T16:10:37.550Z,85.34
2018-02-15T16:13:09.755Z,85.26
2018-02-15T16:15:38.045Z,85.02
2018-02-15T16:18:09.276Z,85.23
2018-02-15T16:20:38.070Z,85.41
2018-02-15T16:23:10.129Z,85.51
2018-02-15T16:25:38.380Z,86.49
2018-02-15T16:28:09.720Z,85.85
2018-02-15T16:30:38.039Z,85.38
2018-02-15T16:33:09.532Z,85.40
2018-02-15T16:35:37.866Z,84.77
2018-02-15T16:38:08.581Z,85.52
2018-02-15T16:40:36.887Z,85.82
2018-02-15T16:43:11.918Z,86.15
2018-02-15T16:45:40.212Z,85.17
2018-02-15T16:48:08.568Z,84.38
2018-02-15T16:50:36.860Z,84.07
2018-02-15T16:53:08.395Z,84.97
2018-02-15T16:55:36.778Z,83.82
2018-02-15T16:58:08.337Z,84.02
2018-02-15T17:00:36.631Z,84.47
2018-02-15T17:03:07.969Z,84.84
2018-02-15T17:05:36.276Z,84.45
2018-02-15T17:08:07.497Z,84.08
2018-02-15T17:10:36.070Z,83.93
2018-02-15T17:13:07.529Z,84.29
2018-02-15T17:15:35.814Z,83.89
2018-02-15T17:18:07.193Z,84.13
2018-02-15T17:20:35.482Z,83.79
2018-02-15T17:23:10.553Z,83.81
2018-02-15T17:25:38.829Z,84.56
2018-02-15T17:28:08.901Z,84.57
2018-02-15T17:30:37.179Z,85.32
2018-02-15T17:33:08.729Z,85.37
2018-02-15T17:35:37.052Z,85.15
2018-02-15T17:38:09.502Z,84.83
2018-02-15T17:40:37.812Z,85.31
2018-02-15T17:43:09.495Z,84.92
2018-02-15T17:45:37.796Z,84.95
2018-02-15T17:48:07.705Z,84.88
2018-02-15T17:50:36.038Z,85.15
2018-02-15T17:53:07.666Z,85.05
2018-02-15T17:55:38.018Z,84.71
2018-02-15T17:58:08.597Z,83.90
2018-02-15T18:00:36.879Z,83.98
2018-02-15T18:03:08.668Z,84.86
2018-02-15T18:05:37.292Z,84.64
2018-02-15T18:08:08.845Z,85.14
2018-02-15T18:10:37.145Z,85.13
2018-02-15T18:13:08.567Z,85.42
2018-02-15T18:15:36.900Z,85.85
2018-02-15T18:18:08.357Z,85.53
2018-02-15T18:20:37.459Z,85.96
2018-02-15T18:23:09.324Z,85.89
2018-02-15T18:25:37.653Z,85.58
2018-02-15T18:28:10.964Z,85.38
2018-02-15T18:30:39.724Z,85.04
2018-02-15T18:33:08.419Z,85.28
2018-02-15T18:35:37.475Z,85.06
2018-02-15T18:38:09.625Z,85.06
2018-02-15T18:40:37.917Z,84.96
2018-02-15T18:43:07.855Z,84.60
2018-02-15T18:45:36.138Z,84.65
2018-02-15T18:48:07.645Z,84.45
2018-02-15T18:50:36.279Z,84.62
2018-02-15T18:53:07.642Z,84.07
2018-02-15T18:55:35.937Z,84.43
2018-02-15T18:58:11.144Z,84.35
2018-02-15T19:00:39.625Z,84.57
2018-02-15T19:03:07.901Z,85.16
2018-02-15T19:05:36.205Z,85.16
2018-02-15T19:08:08.081Z,85.35
2018-02-15T19:10:36.366Z,85.71
2018-02-15T19:13:07.782Z,85.93
2018-02-15T19:15:36.071Z,88.08
2018-02-15T19:18:07.498Z,88.11
2018-02-15T19:20:35.972Z,87.98
2018-02-15T19:23:11.129Z,88.22
2018-02-15T19:25:39.427Z,87.00
2018-02-15T19:28:07.713Z,87.33
2018-02-15T19:30:36.021Z,87.20
2018-02-15T19:33:07.827Z,86.56
2018-02-15T19:35:36.153Z,87.33
2018-02-15T19:38:08.370Z,86.95
2018-02-15T19:40:36.922Z,87.61
2018-02-15T19:43:08.882Z,87.61
2018-02-15T19:45:38.882Z,87.97
2018-02-15T19:48:08.000Z,88.78
2018-02-15T19:50:36.843Z,89.19
2018-02-15T19:53:10.281Z,89.75
2018-02-15T19:55:43.889Z,89.87
2018-02-15T19:58:15.596Z,90.02
2018-02-15T20:00:46.819Z,90.03
2018-02-15T20:03:16.587Z,90.45
2018-02-15T20:05:45.720Z,90.79
2018-02-15T20:08:15.370Z,91.02
2018-02-15T20:10:46.282Z,91.19
2018-02-15T20:13:16.260Z,91.28
2018-02-15T20:15:49.043Z,91.29
2018-02-15T20:18:19.329Z,91.49
2018-02-15T20:20:50.944Z,91.34
2018-02-15T20:23:20.086Z,91.24
2018-02-15T20:25:54.358Z,91.03
2018-02-15T20:28:27.157Z,90.66
2018-02-15T20:30:55.632Z,90.33
2018-02-15T20:33:28.674Z,90.50
2018-02-15T20:36:01.929Z,90.57
2018-02-15T20:38:37.591Z,90.50
2018-02-15T20:41:09.537Z,90.14
2018-02-15T20:43:42.572Z,90.03
2018-02-15T20:46:14.401Z,90.18
2018-02-15T20:48:45.281Z,90.00
2018-02-15T20:51:22.877Z,90.00
2018-02-15T20:53:59.520Z,90.01
2018-02-15T20:56:30.375Z,89.93
2018-02-15T20:59:06.020Z,89.79
2018-02-15T21:01:35.255Z,89.73
2018-02-15T21:04:03.797Z,89.86
2018-02-15T21:06:32.522Z,90.10
2018-02-15T21:09:01.268Z,90.65
2018-02-15T21:11:31.111Z,90.44
2018-02-15T21:14:05.976Z,90.14
2018-02-15T21:16:44.252Z,90.26
2018-02-15T21:19:17.241Z,90.36
2018-02-15T21:21:46.077Z,90.35
2018-02-15T21:24:15.624Z,90.74
2018-02-15T21:26:46.546Z,90.64
2018-02-15T21:29:16.051Z,90.37
2018-02-15T21:31:46.791Z,90.42
2018-02-15T21:34:16.448Z,90.25
2018-02-15T21:36:51.732Z,90.04
2018-02-15T21:39:20.594Z,89.94
2018-02-15T21:41:49.503Z,90.26
2018-02-15T21:44:18.993Z,90.33
2018-02-15T21:46:48.112Z,89.85
2018-02-15T21:49:18.123Z,89.75
2018-02-15T21:51:48.395Z,89.95
2018-02-15T21:54:17.123Z,89.73
2018-02-15T21:56:50.069Z,89.89
2018-02-15T21:59:20.981Z,89.81
2018-02-15T22:01:51.981Z,89.68
2018-02-15T22:04:20.369Z,89.37
2018-02-15T22:06:59.752Z,89.52
2018-02-15T22:09:28.738Z,89.53
2018-02-15T22:11:57.204Z,89.05
2018-02-15T22:14:25.484Z,88.92
2018-02-15T22:16:54.550Z,89.42
2018-02-15T22:19:22.868Z,89.51
2018-02-15T22:21:51.153Z,89.65
2018-02-15T22:24:19.475Z,89.51
2018-02-15T22:26:48.282Z,89.55
2018-02-15T22:29:16.588Z,89.25
2018-02-15T22:31:44.880Z,89.22
2018-02-15T22:34:13.183Z,89.23
2018-02-15T22:36:41.993Z,89.52
2018-02-15T22:39:10.314Z,89.45
2018-02-15T22:41:38.625Z,89.46
2018-02-15T22:44:07.051Z,89.48
2018-02-15T22:46:35.337Z,89.56
2018-02-15T22:49:03.638Z,89.19
2018-02-15T22:51:31.970Z,88.84
2018-02-15T22:54:00.285Z,88.53
2018-02-15T22:56:28.600Z,88.58
2018-02-15T22:58:57.196Z,88.46
2018-02-15T23:01:25.500Z,88.39
2018-02-15T23:03:53.834Z,88.81
2018-02-15T23:06:22.112Z,89.00
2018-02-15T23:08:50.997Z,88.56
2018-02-15T23:11:19.294Z,88.70
2018-02-15T23:13:47.568Z,88.85
2018-02-15T23:16:15.869Z,88.66
2018-02-15T23:18:44.173Z,88.54
2018-02-15T23:21:12.731Z,88.86
2018-02-15T23:23:41.314Z,88.99
2018-02-15T23:26:09.604Z,89.17
2018-02-15T23:28:38.382Z,88.92
2018-02-15T23:31:07.416Z,89.16
2018-02-15T23:33:35.722Z,89.00
2018-02-15T23:36:04.025Z,88.86
2018-02-15T23:38:32.526Z,89.27
2018-02-15T23:41:00.809Z,89.01
2018-02-15T23:43:29.128Z,89.40
2018-02-15T23:45:57.456Z,89.57
2018-02-15T23:48:25.761Z,89.62
2018-02-15T23:50:54.045Z,89.20
2018-02-15T23:53:22.573Z,89.56
2018-02-15T23:55:50.876Z,90.07
2018-02-15T23:58:19.403Z,89.36
